createdAt,value
2022-11-01T00:00:00.050Z,85.94
2022-11-01T00:01:00.028Z,85.94
2022-11-01T00:02:00.109Z,85.64
2022-11-01T00:03:00.021Z,85.53
2022-11-01T00:03:59.985Z,85.74
2022-11-01T00:04:59.993Z,85.74
2022-11-01T00:05:59.989Z,85.74
2022-11-01T00:06:59.968Z,85.64
2022-11-01T00:08:00.142Z,85.64
2022-11-01T00:08:59.950Z,85.64
2022-11-01T00:09:59.917Z,85.43
2022-11-01T00:10:59.927Z,85.64
2022-11-01T00:11:59.909Z,85.64
2022-11-01T00:13:00.193Z,85.53
2022-11-01T00:13:59.893Z,85.53
2022-11-01T00:14:59.876Z,86.10
2022-11-01T00:15:59.852Z,85.49
2022-11-01T00:16:59.869Z,85.29
2022-11-01T00:17:59.842Z,85.39
2022-11-01T00:18:59.862Z,85.29
2022-11-01T00:19:59.867Z,85.49
2022-11-01T00:20:59.821Z,85.39
2022-11-01T00:21:59.787Z,85.39
2022-11-01T00:23:00.206Z,85.29
2022-11-01T00:23:59.792Z,85.39
2022-11-01T00:24:59.770Z,85.19
2022-11-01T00:25:59.766Z,85.19
2022-11-01T00:26:59.741Z,85.39
2022-11-01T00:27:59.947Z,85.09
2022-11-01T00:28:59.748Z,85.29
2022-11-01T00:29:59.729Z,85.39
2022-11-01T00:30:59.717Z,85.19
2022-11-01T00:31:59.679Z,85.19
2022-11-01T00:32:59.720Z,85.09
2022-11-01T00:33:59.672Z,84.99
2022-11-01T00:34:59.670Z,85.09
2022-11-01T00:35:59.646Z,84.99
2022-11-01T00:36:59.659Z,84.99
2022-11-01T00:38:00.007Z,84.99
2022-11-01T00:38:59.624Z,84.88
2022-11-01T00:39:59.599Z,84.88
2022-11-01T00:40:59.603Z,84.68
2022-11-01T00:41:59.580Z,84.58
2022-11-01T00:42:59.569Z,84.34
2022-11-01T00:43:59.552Z,84.17
2022-11-01T00:44:59.581Z,84.48
2022-11-01T00:45:59.537Z,84.38
2022-11-01T00:46:59.533Z,84.38
2022-11-01T00:47:59.744Z,84.28
2022-11-01T00:48:59.526Z,84.38
2022-11-01T00:49:59.507Z,84.68
2022-11-01T00:50:59.496Z,84.58
2022-11-01T00:51:59.467Z,84.68
2022-11-01T00:52:59.486Z,85.29
2022-11-01T00:53:59.439Z,84.78
2022-11-01T00:54:59.461Z,84.48
2022-11-01T00:55:59.448Z,84.54
2022-11-01T00:56:59.425Z,84.23
2022-11-01T00:57:59.703Z,84.34
2022-11-01T00:58:59.408Z,83.93
2022-11-01T01:00:00.595Z,84.13
2022-11-01T01:00:59.497Z,84.03
2022-11-01T01:01:59.492Z,84.13
2022-11-01T01:02:59.807Z,84.23
2022-11-01T01:03:59.332Z,84.03
2022-11-01T01:04:59.332Z,83.83
2022-11-01T01:05:59.315Z,84.03
2022-11-01T01:06:59.329Z,83.93
2022-11-01T01:07:59.305Z,84.03
2022-11-01T01:08:59.293Z,84.03
2022-11-01T01:09:59.268Z,83.93
2022-11-01T01:10:59.280Z,84.03
2022-11-01T01:11:59.270Z,84.13
2022-11-01T01:12:59.543Z,83.93
2022-11-01T01:13:59.246Z,84.23
2022-11-01T01:14:59.221Z,84.13
2022-11-01T01:15:59.193Z,84.13
2022-11-01T01:16:59.207Z,84.13
2022-11-01T01:17:59.516Z,84.13
2022-11-01T01:18:59.190Z,84.23
2022-11-01T01:19:59.183Z,84.34
2022-11-01T01:20:59.161Z,84.13
2022-11-01T01:21:59.169Z,84.03
2022-11-01T01:22:59.164Z,84.03
2022-11-01T01:23:59.166Z,84.03
2022-11-01T01:24:59.111Z,83.62
2022-11-01T01:25:59.106Z,83.83
2022-11-01T01:26:59.090Z,83.73
2022-11-01T01:27:59.238Z,83.83
2022-11-01T01:28:59.081Z,83.62
2022-11-01T01:29:59.060Z,83.83
2022-11-01T01:30:59.063Z,83.53
2022-11-01T01:31:59.049Z,83.62
2022-11-01T01:32:59.049Z,83.53
2022-11-01T01:33:59.039Z,83.73
2022-11-01T01:34:59.021Z,83.53
2022-11-01T01:35:59.024Z,83.32
2022-11-01T01:36:58.998Z,83.28
2022-11-01T01:37:59.171Z,83.48
2022-11-01T01:38:58.963Z,83.38
2022-11-01T01:39:59.000Z,83.59
2022-11-01T01:40:58.927Z,83.59
2022-11-01T01:41:58.946Z,83.73
2022-11-01T01:42:58.917Z,83.62
2022-11-01T01:43:58.912Z,83.42
2022-11-01T01:44:58.888Z,83.62
2022-11-01T01:45:58.933Z,83.93
2022-11-01T01:46:58.863Z,84.23
2022-11-01T01:47:59.073Z,84.34
2022-11-01T01:48:58.855Z,84.95
2022-11-01T01:49:58.837Z,84.74
2022-11-01T01:50:58.838Z,84.84
2022-11-01T01:51:58.847Z,85.25
2022-11-01T01:52:59.093Z,85.05
2022-11-01T01:53:58.817Z,84.95
2022-11-01T01:54:58.785Z,85.15
2022-11-01T01:55:58.884Z,84.84
2022-11-01T01:56:58.752Z,84.50
2022-11-01T01:57:58.772Z,84.40
2022-11-01T01:58:58.746Z,84.09
2022-11-01T01:59:58.739Z,84.20
2022-11-01T02:00:58.773Z,84.50
2022-11-01T02:01:58.841Z,84.20
2022-11-01T02:02:58.941Z,84.20
2022-11-01T02:03:58.696Z,84.40
2022-11-01T02:04:58.666Z,84.20
2022-11-01T02:05:58.675Z,84.40
2022-11-01T02:06:58.649Z,84.30
2022-11-01T02:07:58.877Z,84.50
2022-11-01T02:08:58.629Z,85.11
2022-11-01T02:09:58.642Z,84.91
2022-11-01T02:10:58.607Z,84.50
2022-11-01T02:11:58.607Z,84.60
2022-11-01T02:12:58.582Z,84.60
2022-11-01T02:13:58.581Z,84.46
2022-11-01T02:14:58.589Z,84.36
2022-11-01T02:15:58.562Z,84.16
2022-11-01T02:16:58.541Z,84.01
2022-11-01T02:18:04.266Z,83.51
2022-11-01T02:18:58.521Z,83.51
2022-11-01T02:19:58.522Z,82.96
2022-11-01T02:20:58.580Z,82.96
2022-11-01T02:21:58.511Z,82.66
2022-11-01T02:22:58.625Z,82.66
2022-11-01T02:23:58.500Z,82.25
2022-11-01T02:24:58.469Z,82.56
2022-11-01T02:25:58.444Z,82.45
2022-11-01T02:26:58.436Z,82.96
2022-11-01T02:27:58.450Z,83.06
2022-11-01T02:29:01.773Z,83.06
2022-11-01T02:29:58.449Z,83.26
2022-11-01T02:30:58.441Z,82.96
2022-11-01T02:31:58.407Z,83.17
2022-11-01T02:32:58.475Z,83.03
2022-11-01T02:33:58.399Z,83.33
2022-11-01T02:34:58.352Z,83.57
2022-11-01T02:35:58.342Z,83.67
2022-11-01T02:36:58.340Z,84.58
2022-11-01T02:37:58.320Z,85.30
2022-11-01T02:38:58.380Z,86.31
2022-11-01T02:39:58.300Z,86.51
2022-11-01T02:40:58.280Z,87.12
2022-11-01T02:41:58.301Z,86.91
2022-11-01T02:42:58.543Z,86.82
2022-11-01T02:43:58.266Z,86.91
2022-11-01T02:44:58.992Z,87.63
2022-11-01T02:45:58.304Z,87.93
2022-11-01T02:46:58.241Z,86.71
2022-11-01T02:47:58.220Z,87.73
2022-11-01T02:48:58.227Z,87.12
2022-11-01T02:49:58.211Z,86.91
2022-11-01T02:50:58.171Z,87.12
2022-11-01T02:51:58.166Z,86.71
2022-11-01T02:52:58.279Z,86.61
2022-11-01T02:53:58.147Z,86.61
2022-11-01T02:54:58.122Z,87.12
2022-11-01T02:55:58.123Z,86.51
2022-11-01T02:56:58.108Z,86.71
2022-11-01T02:57:58.098Z,86.51
2022-11-01T02:58:58.210Z,86.37
2022-11-01T02:59:58.095Z,86.37
2022-11-01T03:00:58.103Z,86.37
2022-11-01T03:01:58.187Z,86.57
2022-11-01T03:02:58.040Z,86.68
2022-11-01T03:03:58.036Z,86.61
2022-11-01T03:04:58.051Z,86.61
2022-11-01T03:05:58.013Z,86.91
2022-11-01T03:06:58.026Z,86.82
2022-11-01T03:07:58.012Z,86.82
2022-11-01T03:08:58.002Z,86.91
2022-11-01T03:09:57.970Z,86.82
2022-11-01T03:10:57.984Z,87.12
2022-11-01T03:11:57.974Z,86.57
2022-11-01T03:12:57.920Z,86.68
2022-11-01T03:13:57.924Z,87.02
2022-11-01T03:14:57.913Z,87.43
2022-11-01T03:15:57.926Z,87.32
2022-11-01T03:16:57.901Z,87.22
2022-11-01T03:17:57.890Z,87.22
2022-11-01T03:18:59.421Z,87.32
2022-11-01T03:19:57.870Z,86.88
2022-11-01T03:20:57.857Z,86.88
2022-11-01T03:21:57.836Z,86.77
2022-11-01T03:22:57.822Z,86.98
2022-11-01T03:23:57.819Z,86.88
2022-11-01T03:24:57.815Z,87.32
2022-11-01T03:25:57.806Z,87.43
2022-11-01T03:26:57.791Z,87.63
2022-11-01T03:27:57.793Z,87.63
2022-11-01T03:28:57.746Z,87.52
2022-11-01T03:29:57.749Z,87.43
2022-11-01T03:30:57.734Z,87.43
2022-11-01T03:31:57.747Z,87.32
2022-11-01T03:32:57.710Z,87.43
2022-11-01T03:33:57.706Z,87.22
2022-11-01T03:34:57.692Z,87.22
2022-11-01T03:35:57.706Z,87.32
2022-11-01T03:36:57.696Z,87.43
2022-11-01T03:37:57.667Z,87.22
2022-11-01T03:38:57.650Z,87.32
2022-11-01T03:39:57.648Z,87.32
2022-11-01T03:40:57.617Z,87.43
2022-11-01T03:41:57.647Z,87.52
2022-11-01T03:42:57.615Z,87.73
2022-11-01T03:43:57.602Z,87.97
2022-11-01T03:44:57.583Z,88.18
2022-11-01T03:45:57.587Z,88.38
2022-11-01T03:46:57.580Z,88.68
2022-11-01T03:47:57.583Z,88.89
2022-11-01T03:48:57.544Z,88.89
2022-11-01T03:49:57.534Z,88.99
2022-11-01T03:50:57.519Z,88.99
2022-11-01T03:51:57.508Z,88.99
2022-11-01T03:52:57.530Z,88.99
2022-11-01T03:53:57.504Z,88.99
2022-11-01T03:54:57.472Z,88.89
2022-11-01T03:55:57.471Z,88.89
2022-11-01T03:56:57.450Z,88.58
2022-11-01T03:57:57.441Z,88.48
2022-11-01T03:58:57.462Z,88.48
2022-11-01T03:59:57.427Z,88.38
2022-11-01T04:00:57.475Z,88.68
2022-11-01T04:01:57.642Z,88.89
2022-11-01T04:02:57.437Z,88.89
2022-11-01T04:03:57.394Z,89.09
2022-11-01T04:04:57.381Z,89.09
2022-11-01T04:05:57.355Z,88.89
2022-11-01T04:06:57.362Z,88.89
2022-11-01T04:07:57.335Z,88.68
2022-11-01T04:08:57.327Z,88.58
2022-11-01T04:09:57.351Z,88.48
2022-11-01T04:10:57.329Z,88.58
2022-11-01T04:11:57.315Z,88.23
2022-11-01T04:12:57.285Z,88.48
2022-11-01T04:13:57.264Z,88.34
2022-11-01T04:14:57.269Z,88.03
2022-11-01T04:15:57.248Z,87.93
2022-11-01T04:16:57.340Z,87.73
2022-11-01T04:17:57.229Z,87.63
2022-11-01T04:18:57.211Z,87.83
2022-11-01T04:19:57.236Z,87.63
2022-11-01T04:20:57.179Z,87.93
2022-11-01T04:21:57.197Z,88.03
2022-11-01T04:22:57.181Z,88.13
2022-11-01T04:23:57.165Z,88.13
2022-11-01T04:24:57.150Z,87.89
2022-11-01T04:25:57.142Z,87.79
2022-11-01T04:26:57.153Z,87.69
2022-11-01T04:27:57.127Z,87.59
2022-11-01T04:28:57.381Z,87.18
2022-11-01T04:29:57.096Z,87.18
2022-11-01T04:30:57.082Z,87.28
2022-11-01T04:31:57.086Z,87.18
2022-11-01T04:32:57.075Z,87.18
2022-11-01T04:33:57.071Z,87.38
2022-11-01T04:34:57.084Z,87.69
2022-11-01T04:35:57.041Z,87.79
2022-11-01T04:36:57.043Z,87.79
2022-11-01T04:37:57.009Z,87.79
2022-11-01T04:38:56.996Z,87.28
2022-11-01T04:39:56.994Z,87.28
2022-11-01T04:40:56.976Z,87.28
2022-11-01T04:41:56.978Z,87.38
2022-11-01T04:42:56.971Z,87.38
2022-11-01T04:43:56.999Z,87.48
2022-11-01T04:44:56.926Z,87.48
2022-11-01T04:45:56.926Z,87.59
2022-11-01T04:46:56.903Z,87.59
2022-11-01T04:47:56.901Z,87.79
2022-11-01T04:48:56.924Z,88.09
2022-11-01T04:49:56.884Z,88.20
2022-11-01T04:50:56.890Z,88.40
2022-11-01T04:51:56.864Z,88.40
2022-11-01T04:52:56.871Z,88.49
2022-11-01T04:53:56.865Z,88.49
2022-11-01T04:54:56.814Z,88.49
2022-11-01T04:55:56.823Z,88.70
2022-11-01T04:56:56.822Z,88.80
2022-11-01T04:57:56.805Z,89.01
2022-11-01T04:58:56.826Z,89.11
2022-11-01T04:59:56.771Z,89.11
2022-11-01T05:00:56.812Z,88.80
2022-11-01T05:01:56.776Z,88.60
2022-11-01T05:02:56.725Z,88.60
2022-11-01T05:03:56.762Z,88.80
2022-11-01T05:04:56.701Z,88.80
2022-11-01T05:05:56.699Z,89.21
2022-11-01T05:06:56.689Z,89.21
2022-11-01T05:07:56.707Z,89.21
2022-11-01T05:08:56.668Z,89.31
2022-11-01T05:09:56.676Z,89.31
2022-11-01T05:10:56.657Z,89.61
2022-11-01T05:11:56.680Z,89.72
2022-11-01T05:12:56.622Z,89.92
2022-11-01T05:13:56.643Z,89.92
2022-11-01T05:14:57.033Z,89.61
2022-11-01T05:16:18.437Z,89.51
2022-11-01T05:16:56.581Z,89.72
2022-11-01T05:17:56.590Z,89.51
2022-11-01T05:18:56.547Z,89.31
2022-11-01T05:19:56.582Z,89.41
2022-11-01T05:20:56.527Z,89.41
2022-11-01T05:21:56.521Z,89.51
2022-11-01T05:22:56.536Z,89.17
2022-11-01T05:23:56.512Z,88.80
2022-11-01T05:24:56.516Z,89.51
2022-11-01T05:25:56.537Z,89.41
2022-11-01T05:26:56.476Z,89.51
2022-11-01T05:27:56.476Z,89.61
2022-11-01T05:28:56.447Z,89.26
2022-11-01T05:29:56.461Z,89.06
2022-11-01T05:30:56.448Z,89.57
2022-11-01T05:31:56.448Z,89.51
2022-11-01T05:32:56.424Z,89.61
2022-11-01T05:33:56.404Z,89.72
2022-11-01T05:34:56.384Z,89.72
2022-11-01T05:35:56.386Z,89.51
2022-11-01T05:36:56.403Z,89.72
2022-11-01T05:37:56.353Z,89.72
2022-11-01T05:38:56.391Z,89.92
2022-11-01T05:39:56.345Z,89.47
2022-11-01T05:40:56.361Z,89.37
2022-11-01T05:41:59.845Z,89.06
2022-11-01T05:42:56.321Z,88.86
2022-11-01T05:43:56.278Z,88.86
2022-11-01T05:44:56.294Z,88.76
2022-11-01T05:45:56.283Z,88.72
2022-11-01T05:46:56.275Z,88.72
2022-11-01T05:47:56.236Z,88.72
2022-11-01T05:48:56.270Z,88.62
2022-11-01T05:49:56.218Z,88.31
2022-11-01T05:50:56.214Z,88.42
2022-11-01T05:51:56.230Z,88.42
2022-11-01T05:52:56.215Z,88.42
2022-11-01T05:53:56.181Z,88.31
2022-11-01T05:54:56.180Z,88.01
2022-11-01T05:55:56.146Z,88.01
2022-11-01T05:56:56.165Z,88.01
2022-11-01T05:57:56.182Z,87.91
2022-11-01T05:58:56.098Z,87.91
2022-11-01T05:59:56.053Z,87.56
2022-11-01T06:00:56.056Z,87.36
2022-11-01T06:01:56.167Z,87.36
2022-11-01T06:02:56.117Z,87.26
2022-11-01T06:03:56.026Z,87.05
2022-11-01T06:04:59.108Z,87.05
2022-11-01T06:05:56.009Z,87.16
2022-11-01T06:06:55.996Z,86.65
2022-11-01T06:07:55.998Z,86.35
2022-11-01T06:08:55.978Z,86.31
2022-11-01T06:09:55.956Z,86.25
2022-11-01T06:10:55.941Z,86.35
2022-11-01T06:11:55.925Z,86.00
2022-11-01T06:12:55.916Z,85.70
2022-11-01T06:13:55.929Z,85.70
2022-11-01T06:14:55.903Z,85.70
2022-11-01T06:15:55.880Z,85.70
2022-11-01T06:16:55.882Z,85.80
2022-11-01T06:17:55.871Z,85.80
2022-11-01T06:18:55.867Z,85.50
2022-11-01T06:19:55.837Z,85.50
2022-11-01T06:20:55.852Z,85.30
2022-11-01T06:21:55.812Z,85.19
2022-11-01T06:22:55.821Z,84.79
2022-11-01T06:23:55.820Z,84.79
2022-11-01T06:24:55.798Z,84.89
2022-11-01T06:25:55.789Z,84.89
2022-11-01T06:26:55.822Z,84.79
2022-11-01T06:27:55.762Z,84.99
2022-11-01T06:28:55.764Z,84.79
2022-11-01T06:29:55.767Z,84.99
2022-11-01T06:30:55.768Z,84.59
2022-11-01T06:31:55.719Z,83.78
2022-11-01T06:32:55.726Z,83.54
2022-11-01T06:33:55.693Z,83.84
2022-11-01T06:34:55.701Z,83.94
2022-11-01T06:35:55.668Z,84.04
2022-11-01T06:36:55.663Z,82.62
2022-11-01T06:37:55.643Z,82.36
2022-11-01T06:38:55.646Z,82.46
2022-11-01T06:39:55.649Z,82.76
2022-11-01T06:40:55.646Z,81.55
2022-11-01T06:41:55.596Z,81.45
2022-11-01T06:42:55.606Z,81.35
2022-11-01T06:43:55.651Z,81.45
2022-11-01T06:44:55.594Z,80.88
2022-11-01T06:45:55.569Z,79.83
2022-11-01T06:46:55.578Z,79.53
2022-11-01T06:47:55.546Z,79.53
2022-11-01T06:48:55.558Z,79.57
2022-11-01T06:49:55.571Z,79.77
2022-11-01T06:50:55.517Z,80.07
2022-11-01T06:51:55.519Z,79.06
2022-11-01T06:52:55.534Z,79.26
2022-11-01T06:53:55.545Z,78.89
2022-11-01T06:54:55.494Z,77.98
2022-11-01T06:55:55.488Z,78.19
2022-11-01T06:56:55.572Z,78.59
2022-11-01T06:57:55.465Z,78.19
2022-11-01T06:58:55.435Z,78.89
2022-11-01T06:59:55.493Z,78.73
2022-11-01T07:00:55.537Z,78.53
2022-11-01T07:01:55.567Z,78.63
2022-11-01T07:02:55.502Z,79.03
2022-11-01T07:03:55.401Z,78.53
2022-11-01T07:04:55.351Z,79.03
2022-11-01T07:05:55.378Z,77.95
2022-11-01T07:06:55.345Z,77.65
2022-11-01T07:07:55.319Z,77.45
2022-11-01T07:08:55.324Z,77.04
2022-11-01T07:09:55.312Z,76.54
2022-11-01T07:10:55.299Z,76.43
2022-11-01T07:11:55.345Z,75.42
2022-11-01T07:12:55.283Z,75.32
2022-11-01T07:13:55.315Z,75.73
2022-11-01T07:14:55.288Z,75.82
2022-11-01T07:15:55.311Z,74.85
2022-11-01T07:16:55.261Z,74.65
2022-11-01T07:17:55.221Z,74.34
2022-11-01T07:18:55.232Z,74.14
2022-11-01T07:19:56.412Z,73.12
2022-11-01T07:20:55.195Z,73.43
2022-11-01T07:21:55.183Z,73.53
2022-11-01T07:22:55.166Z,73.36
2022-11-01T07:23:55.160Z,72.14
2022-11-01T07:24:55.165Z,72.14
2022-11-01T07:25:55.133Z,71.13
2022-11-01T07:26:55.131Z,71.44
2022-11-01T07:27:55.133Z,70.83
2022-11-01T07:28:55.160Z,70.21
2022-11-01T07:29:55.124Z,69.20
2022-11-01T07:30:55.168Z,69.60
2022-11-01T07:31:55.069Z,69.00
2022-11-01T07:32:55.077Z,69.71
2022-11-01T07:33:55.378Z,68.70
2022-11-01T07:34:55.359Z,68.70
2022-11-01T07:35:55.066Z,69.20
2022-11-01T07:36:55.029Z,69.51
2022-11-01T07:37:55.169Z,69.30
2022-11-01T07:38:55.081Z,69.84
2022-11-01T07:39:55.044Z,70.25
2022-11-01T07:40:54.997Z,70.25
2022-11-01T07:41:54.993Z,70.25
2022-11-01T07:42:54.989Z,70.65
2022-11-01T07:43:55.084Z,71.06
2022-11-01T07:44:54.940Z,71.40
2022-11-01T07:45:54.913Z,71.91
2022-11-01T07:46:54.919Z,72.01
2022-11-01T07:47:54.917Z,72.11
2022-11-01T07:48:55.187Z,72.52
2022-11-01T07:49:54.872Z,73.02
2022-11-01T07:50:54.918Z,73.33
2022-11-01T07:51:58.911Z,73.57
2022-11-01T07:52:54.938Z,74.07
2022-11-01T07:53:56.169Z,73.57
2022-11-01T07:54:54.811Z,74.18
2022-11-01T07:55:54.827Z,73.57
2022-11-01T07:56:54.809Z,73.67
2022-11-01T07:57:54.804Z,73.26
2022-11-01T07:58:55.854Z,73.46
2022-11-01T07:59:54.801Z,73.06
2022-11-01T08:00:54.809Z,71.30
2022-11-01T08:01:54.897Z,71.40
2022-11-01T08:02:54.720Z,70.48
2022-11-01T08:03:56.530Z,70.79
2022-11-01T08:04:54.720Z,70.68
2022-11-01T08:05:54.714Z,70.08
2022-11-01T08:06:55.124Z,70.48
2022-11-01T08:07:54.702Z,70.38
2022-11-01T08:08:54.701Z,70.38
2022-11-01T08:09:54.673Z,70.15
2022-11-01T08:10:54.662Z,70.15
2022-11-01T08:11:54.626Z,69.34
2022-11-01T08:12:54.667Z,69.54
2022-11-01T08:13:57.847Z,69.54
2022-11-01T08:14:54.688Z,69.95
2022-11-01T08:15:54.600Z,69.34
2022-11-01T08:16:54.614Z,69.13
2022-11-01T08:17:54.614Z,69.03
2022-11-01T08:18:54.621Z,68.42
2022-11-01T08:19:54.543Z,68.59
2022-11-01T08:20:54.585Z,68.90
2022-11-01T08:21:54.517Z,68.19
2022-11-01T08:22:54.519Z,68.19
2022-11-01T08:23:54.489Z,68.59
2022-11-01T08:24:54.515Z,68.70
2022-11-01T08:25:54.482Z,68.39
2022-11-01T08:26:54.472Z,68.49
2022-11-01T08:27:54.451Z,69.10
2022-11-01T08:28:54.974Z,69.40
2022-11-01T08:29:54.457Z,68.59
2022-11-01T08:30:54.431Z,69.10
2022-11-01T08:31:54.425Z,68.90
2022-11-01T08:32:54.413Z,69.40
2022-11-01T08:33:54.395Z,68.79
2022-11-01T08:34:54.393Z,69.07
2022-11-01T08:35:54.362Z,68.87
2022-11-01T08:36:54.395Z,68.87
2022-11-01T08:37:54.339Z,68.46
2022-11-01T08:38:54.592Z,68.35
2022-11-01T08:39:54.351Z,68.26
2022-11-01T08:40:54.320Z,68.05
2022-11-01T08:41:54.314Z,67.95
2022-11-01T08:42:54.302Z,67.95
2022-11-01T08:43:54.912Z,67.75
2022-11-01T08:44:54.281Z,67.85
2022-11-01T08:45:54.271Z,67.75
2022-11-01T08:46:54.250Z,67.65
2022-11-01T08:47:54.228Z,67.85
2022-11-01T08:48:54.423Z,67.95
2022-11-01T08:49:54.204Z,67.61
2022-11-01T08:50:54.226Z,67.65
2022-11-01T08:51:54.193Z,67.51
2022-11-01T08:52:54.201Z,68.23
2022-11-01T08:53:54.172Z,67.31
2022-11-01T08:54:54.194Z,67.44
2022-11-01T08:55:54.178Z,67.61
2022-11-01T08:56:54.141Z,66.77
2022-11-01T08:57:54.124Z,66.54
2022-11-01T08:58:54.199Z,66.33
2022-11-01T08:59:54.127Z,65.93
2022-11-01T09:00:54.156Z,65.42
2022-11-01T09:01:54.209Z,65.53
2022-11-01T09:02:54.079Z,65.73
2022-11-01T09:03:54.065Z,65.22
2022-11-01T09:04:54.072Z,65.45
2022-11-01T09:05:54.065Z,65.36
2022-11-01T09:06:54.053Z,65.76
2022-11-01T09:07:54.009Z,65.36
2022-11-01T09:08:54.042Z,65.96
2022-11-01T09:09:54.026Z,65.15
2022-11-01T09:10:54.049Z,65.56
2022-11-01T09:11:53.975Z,65.86
2022-11-01T09:12:53.986Z,65.76
2022-11-01T09:13:53.966Z,65.15
2022-11-01T09:14:53.954Z,65.22
2022-11-01T09:15:55.349Z,64.44
2022-11-01T09:16:53.946Z,64.34
2022-11-01T09:17:53.933Z,64.75
2022-11-01T09:18:53.897Z,64.75
2022-11-01T09:19:53.887Z,65.05
2022-11-01T09:20:59.451Z,65.15
2022-11-01T09:21:53.878Z,65.32
2022-11-01T09:22:53.910Z,65.25
2022-11-01T09:23:53.862Z,64.75
2022-11-01T09:24:53.864Z,64.54
2022-11-01T09:25:53.823Z,64.82
2022-11-01T09:26:53.821Z,64.11
2022-11-01T09:27:53.840Z,64.11
2022-11-01T09:28:53.802Z,63.73
2022-11-01T09:29:53.778Z,64.14
2022-11-01T09:31:01.405Z,63.83
2022-11-01T09:31:53.779Z,64.92
2022-11-01T09:32:53.759Z,64.41
2022-11-01T09:33:53.753Z,63.81
2022-11-01T09:34:53.762Z,63.50
2022-11-01T09:35:59.187Z,63.57
2022-11-01T09:36:53.742Z,63.27
2022-11-01T09:37:53.746Z,63.17
2022-11-01T09:38:53.740Z,63.47
2022-11-01T09:39:54.214Z,63.78
2022-11-01T09:40:53.680Z,63.07
2022-11-01T09:41:53.660Z,63.24
2022-11-01T09:42:57.808Z,62.84
2022-11-01T09:43:53.652Z,62.70
2022-11-01T09:44:53.623Z,61.90
2022-11-01T09:45:53.615Z,61.66
2022-11-01T09:46:56.606Z,61.73
2022-11-01T09:47:53.586Z,60.65
2022-11-01T09:48:53.681Z,61.49
2022-11-01T09:49:53.607Z,61.90
2022-11-01T09:50:53.918Z,61.99
2022-11-01T09:51:53.545Z,63.58
2022-11-01T09:52:53.587Z,61.87
2022-11-01T09:53:53.589Z,61.96
2022-11-01T09:54:54.427Z,61.25
2022-11-01T09:55:53.553Z,61.66
2022-11-01T09:56:53.587Z,60.65
2022-11-01T09:57:53.483Z,61.25
2022-11-01T09:58:55.194Z,60.96
2022-11-01T09:59:53.658Z,61.25
2022-11-01T10:00:53.532Z,61.05
2022-11-01T10:01:53.642Z,61.13
2022-11-01T10:02:53.431Z,60.22
2022-11-01T10:03:53.435Z,60.12
2022-11-01T10:04:53.413Z,59.21
2022-11-01T10:05:53.431Z,59.84
2022-11-01T10:06:53.389Z,59.94
2022-11-01T10:07:53.408Z,60.35
2022-11-01T10:08:53.403Z,60.75
2022-11-01T10:09:53.412Z,59.91
2022-11-01T10:10:53.357Z,59.61
2022-11-01T10:11:53.348Z,60.32
2022-11-01T10:12:53.338Z,59.78
2022-11-01T10:13:53.330Z,59.48
2022-11-01T10:14:53.305Z,59.78
2022-11-01T10:15:53.340Z,58.37
2022-11-01T10:16:53.300Z,59.71
2022-11-01T10:17:53.286Z,58.67
2022-11-01T10:18:53.699Z,58.47
2022-11-01T10:19:53.296Z,58.37
2022-11-01T10:20:53.228Z,58.37
2022-11-01T10:21:53.257Z,58.70
2022-11-01T10:22:53.220Z,59.91
2022-11-01T10:23:53.395Z,59.38
2022-11-01T10:24:53.194Z,59.78
2022-11-01T10:25:53.238Z,58.85
2022-11-01T10:26:53.234Z,58.27
2022-11-01T10:27:53.165Z,58.67
2022-11-01T10:28:53.828Z,58.70
2022-11-01T10:29:53.147Z,59.61
2022-11-01T10:30:53.148Z,59.21
2022-11-01T10:31:53.150Z,59.51
2022-11-01T10:32:53.112Z,58.37
2022-11-01T10:33:53.108Z,58.34
2022-11-01T10:34:53.077Z,58.12
2022-11-01T10:35:53.095Z,56.48
2022-11-01T10:36:53.140Z,55.64
2022-11-01T10:38:04.343Z,55.44
2022-11-01T10:39:55.689Z,55.64
2022-11-01T10:40:53.055Z,55.91
2022-11-01T10:41:53.052Z,55.36
2022-11-01T10:42:53.006Z,54.03
2022-11-01T10:43:53.015Z,53.32
2022-11-01T10:44:52.981Z,52.77
2022-11-01T10:45:52.972Z,51.89
2022-11-01T10:46:52.975Z,51.97
2022-11-01T10:47:52.962Z,52.37
2022-11-01T10:48:52.995Z,51.14
2022-11-01T10:50:05.508Z,51.01
2022-11-01T10:50:53.055Z,51.21
2022-11-01T10:51:52.918Z,50.53
2022-11-01T10:52:52.910Z,50.93
2022-11-01T10:53:52.893Z,51.89
2022-11-01T10:54:52.886Z,52.49
2022-11-01T10:55:52.877Z,52.06
2022-11-01T10:56:52.858Z,51.74
2022-11-01T10:57:52.857Z,50.61
2022-11-01T10:58:53.790Z,50.13
2022-11-01T10:59:53.081Z,49.91
2022-11-01T11:00:52.977Z,50.61
2022-11-01T11:01:52.941Z,50.29
2022-11-01T11:02:52.777Z,49.18
2022-11-01T11:03:52.815Z,49.21
2022-11-01T11:04:52.809Z,49.76
2022-11-01T11:05:52.776Z,50.93
2022-11-01T11:06:52.756Z,50.13
2022-11-01T11:07:52.764Z,50.91
2022-11-01T11:08:52.749Z,49.93
2022-11-01T11:09:52.785Z,50.26
2022-11-01T11:10:52.734Z,51.79
2022-11-01T11:11:52.740Z,52.31
2022-11-01T11:12:52.762Z,52.57
2022-11-01T11:13:52.700Z,53.70
2022-11-01T11:14:52.670Z,54.71
2022-11-01T11:15:52.702Z,54.43
2022-11-01T11:16:52.666Z,55.16
2022-11-01T11:17:52.652Z,55.99
2022-11-01T11:18:52.634Z,56.60
2022-11-01T11:19:52.624Z,57.31
2022-11-01T11:20:52.650Z,56.37
2022-11-01T11:21:52.600Z,55.77
2022-11-01T11:22:52.612Z,55.36
2022-11-01T11:23:52.577Z,55.94
2022-11-01T11:24:52.567Z,54.83
2022-11-01T11:25:52.559Z,55.74
2022-11-01T11:26:54.311Z,54.73
2022-11-01T11:27:52.559Z,55.14
2022-11-01T11:28:52.543Z,55.41
2022-11-01T11:29:52.567Z,54.61
2022-11-01T11:30:52.502Z,54.30
2022-11-01T11:31:52.517Z,54.63
2022-11-01T11:32:52.491Z,55.64
2022-11-01T11:33:52.477Z,56.55
2022-11-01T11:34:52.469Z,56.15
2022-11-01T11:35:52.460Z,56.04
2022-11-01T11:36:52.438Z,56.45
2022-11-01T11:37:52.475Z,56.55
2022-11-01T11:38:52.415Z,55.91
2022-11-01T11:39:52.445Z,55.74
2022-11-01T11:40:52.406Z,55.44
2022-11-01T11:41:52.403Z,56.17
2022-11-01T11:42:52.377Z,56.20
2022-11-01T11:43:52.388Z,56.60
2022-11-01T11:44:55.562Z,57.36
2022-11-01T11:45:52.429Z,58.45
2022-11-01T11:46:52.326Z,57.31
2022-11-01T11:47:52.345Z,57.08
2022-11-01T11:48:52.332Z,56.45
2022-11-01T11:49:52.305Z,55.97
2022-11-01T11:50:52.299Z,55.94
2022-11-01T11:51:52.409Z,55.44
2022-11-01T11:52:52.260Z,56.12
2022-11-01T11:53:52.273Z,54.71
2022-11-01T11:54:52.243Z,55.41
2022-11-01T11:55:52.252Z,56.15
2022-11-01T11:56:52.212Z,56.24
2022-11-01T11:57:52.263Z,57.58
2022-11-01T11:58:52.207Z,56.68
2022-11-01T11:59:52.207Z,57.25
2022-11-01T12:00:52.168Z,55.91
2022-11-01T12:01:52.301Z,56.37
2022-11-01T12:02:52.210Z,55.87
2022-11-01T12:03:52.180Z,55.06
2022-11-01T12:04:52.155Z,56.12
2022-11-01T12:05:52.135Z,56.98
2022-11-01T12:06:52.112Z,57.28
2022-11-01T12:07:52.143Z,57.08
2022-11-01T12:08:52.096Z,57.98
2022-11-01T12:09:52.128Z,58.82
2022-11-01T12:10:52.072Z,57.89
2022-11-01T12:11:52.072Z,57.91
2022-11-01T12:12:52.046Z,57.98
2022-11-01T12:13:52.079Z,57.89
2022-11-01T12:14:52.041Z,58.49
2022-11-01T12:15:52.099Z,57.25
2022-11-01T12:16:52.065Z,57.08
2022-11-01T12:17:52.012Z,58.32
2022-11-01T12:18:52.861Z,58.32
2022-11-01T12:19:51.997Z,58.59
2022-11-01T12:20:51.964Z,58.76
2022-11-01T12:21:51.958Z,57.73
2022-11-01T12:22:51.940Z,57.45
2022-11-01T12:23:51.943Z,56.85
2022-11-01T12:24:51.949Z,57.83
2022-11-01T12:25:51.920Z,57.00
2022-11-01T12:26:51.886Z,56.20
2022-11-01T12:27:51.895Z,55.79
2022-11-01T12:28:51.885Z,56.16
2022-11-01T12:29:51.898Z,55.46
2022-11-01T12:30:51.896Z,54.96
2022-11-01T12:31:51.847Z,55.99
2022-11-01T12:32:52.140Z,55.82
2022-11-01T12:33:51.839Z,56.85
2022-11-01T12:34:51.849Z,57.25
2022-11-01T12:35:51.804Z,57.56
2022-11-01T12:36:51.811Z,56.95
2022-11-01T12:37:51.787Z,56.52
2022-11-01T12:38:51.764Z,56.70
2022-11-01T12:39:52.177Z,55.89
2022-11-01T12:40:51.765Z,55.16
2022-11-01T12:41:51.756Z,55.56
2022-11-01T12:42:51.743Z,54.96
2022-11-01T12:43:51.728Z,54.66
2022-11-01T12:44:51.686Z,53.50
2022-11-01T12:45:51.702Z,53.17
2022-11-01T12:46:51.664Z,51.84
2022-11-01T12:47:52.590Z,51.94
2022-11-01T12:48:51.657Z,53.07
2022-11-01T12:49:51.677Z,54.63
2022-11-01T12:50:51.671Z,55.06
2022-11-01T12:51:51.648Z,54.05
2022-11-01T12:52:51.670Z,54.15